Time;durP1;ratioP1;P1;durP2;ratioP2;P2;SDS_P1;SDS_P2;PMS_P1;PMS_P2;Temp;Humidity;BMP_temperature;BMP_pressure;BME280_temperature;BME280_humidity;BME280_pressure;Samples;Min_cycle;Max_cycle;Signal;HPM_P1;HPM_P2
2023/02/18 00:00:20;;;;;;;51.00;19.92;;;;;;;8.73;94.86;102452.97;6105339;19;20652;-75
2023/02/18 00:02:26;;;;;;;52.95;20.58;;;;;;;8.71;95.17;102449.50;6104882;19;20010;-74
2023/02/18 00:04:31;;;;;;;55.08;20.88;;;;;;;8.67;95.28;102446.03;6104363;19;20023;-76
2023/02/18 00:06:40;;;;;;;61.03;20.42;;;;;;;8.63;95.14;102441.69;6106473;19;20074;-75
2023/02/18 00:08:50;;;;;;;57.00;22.23;;;;;;;8.61;95.40;102445.19;6105311;19;20014;-75
2023/02/18 00:10:55;;;;;;;51.20;19.35;;;;;;;8.65;95.24;102433.81;6103385;19;20826;-75
2023/02/18 00:13:00;;;;;;;47.70;19.48;;;;;;;8.63;95.36;102431.19;6102149;19;20069;-75
2023/02/18 00:15:06;;;;;;;54.08;20.67;;;;;;;8.59;95.38;102421.63;6101417;19;20069;-74
2023/02/18 00:17:14;;;;;;;52.53;20.10;;;;;;;8.59;95.42;102426.88;6104114;19;20065;-75
2023/02/18 00:19:21;;;;;;;49.08;20.45;;;;;;;8.57;95.56;102423.38;6104058;19;20045;-75
2023/02/18 00:21:27;;;;;;;50.53;20.52;;;;;;;8.54;95.76;102419.03;6104742;19;20038;-74
2023/02/18 00:23:32;;;;;;;57.30;20.70;;;;;;;8.53;95.92;102416.41;6103212;19;20014;-74
2023/02/18 00:25:40;;;;;;;52.33;19.98;;;;;;;8.57;95.78;102418.16;6104353;19;20094;-75
2023/02/18 00:27:44;;;;;;;52.97;19.67;;;;;;;8.50;96.06;102421.69;6102215;19;20015;-75
2023/02/18 00:29:53;;;;;;;55.35;19.23;;;;;;;8.50;95.87;102416.44;6093425;19;20669;-74
2023/02/18 00:31:58;;;;;;;47.55;18.00;;;;;;;8.51;95.76;102413.81;6097550;19;20011;-75
2023/02/18 00:34:06;;;;;;;52.50;19.98;;;;;;;8.47;96.03;102413.84;6104720;19;20015;-74
2023/02/18 00:36:13;;;;;;;51.50;19.35;;;;;;;8.48;96.14;102407.75;6102554;19;20038;-75
2023/02/18 00:38:18;;;;;;;52.53;20.88;;;;;;;8.46;96.11;102414.72;6102186;19;20002;-75
2023/02/18 00:40:24;;;;;;;57.30;20.75;;;;;;;8.46;95.98;102401.63;6104107;19;20007;-74
2023/02/18 00:42:29;;;;;;;44.78;18.88;;;;;;;8.50;95.98;102405.97;6103729;19;20013;-79
2023/02/18 00:44:36;;;;;;;44.28;16.67;;;;;;;8.52;96.27;102399.81;6101711;19;20025;-79
2023/02/18 00:46:41;;;;;;;38.80;16.88;;;;;;;8.57;95.77;102399.81;6104297;19;20098;-77
2023/02/18 00:48:46;;;;;;;45.45;16.65;;;;;;;8.54;95.86;102407.69;6103657;19;20015;-79
2023/02/18 00:50:55;;;;;;;42.40;16.35;;;;;;;8.56;95.99;102400.69;6103831;19;20018;-78
2023/02/18 00:53:02;;;;;;;40.17;14.65;;;;;;;8.55;96.41;102394.56;6095332;19;20078;-77
2023/02/18 00:55:09;;;;;;;35.78;15.10;;;;;;;8.55;96.34;102391.94;6100416;19;20059;-79
2023/02/18 00:57:14;;;;;;;38.50;15.68;;;;;;;8.57;96.20;102386.69;6101543;19;20257;-78
2023/02/18 00:59:19;;;;;;;39.65;15.90;;;;;;;8.60;96.15;102385.81;6101174;19;20006;-79
2023/02/18 01:01:25;;;;;;;39.78;16.00;;;;;;;8.63;96.25;102385.78;6096640;19;20018;-78
2023/02/18 01:03:30;;;;;;;39.53;15.88;;;;;;;8.59;96.25;102379.72;6101227;19;20069;-77
2023/02/18 01:05:35;;;;;;;33.97;15.15;;;;;;;8.63;96.00;102381.41;6100406;19;20007;-78
2023/02/18 01:07:43;;;;;;;45.00;16.23;;;;;;;8.60;96.28;102375.34;6102195;19;20476;-79
2023/02/18 01:09:48;;;;;;;37.05;15.75;;;;;;;8.61;95.99;102370.09;6097656;19;20489;-79
2023/02/18 01:11:53;;;;;;;36.08;14.25;;;;;;;8.65;96.25;102376.16;6099341;19;20015;-78
2023/02/18 01:14:00;;;;;;;37.60;14.98;;;;;;;8.64;96.16;102383.16;6096905;19;20003;-76
2023/02/18 01:16:06;;;;;;;46.22;16.48;;;;;;;8.68;96.18;102377.00;6093477;19;20038;-75
2023/02/18 01:18:12;;;;;;;41.65;14.93;;;;;;;8.71;96.05;102381.34;6099704;19;20098;-75
2023/02/18 01:20:18;;;;;;;40.72;15.52;;;;;;;8.67;96.26;102377.91;6100197;19;20011;-75
2023/02/18 01:22:23;;;;;;;37.95;15.00;;;;;;;8.70;96.26;102377.00;6100395;19;20505;-75
2023/02/18 01:24:30;;;;;;;34.67;14.10;;;;;;;8.65;96.15;102369.16;6102902;19;20624;-75
2023/02/18 01:26:35;;;;;;;44.53;15.88;;;;;;;8.63;96.09;102370.94;6103038;19;20042;-75
2023/02/18 01:28:40;;;;;;;37.78;14.20;;;;;;;8.66;96.33;102368.31;6098880;19;20033;-77
2023/02/18 01:30:48;;;;;;;43.60;15.38;;;;;;;8.69;95.94;102360.41;6098613;19;20029;-78
2023/02/18 01:32:58;;;;;;;34.30;13.77;;;;;;;8.66;96.16;102360.44;6099792;19;20061;-77
2023/02/18 01:35:03;;;;;;;35.78;13.10;;;;;;;8.69;95.82;102357.78;6102075;19;20011;-74
2023/02/18 01:37:11;;;;;;;38.85;13.70;;;;;;;8.66;96.06;102365.69;6103093;19;20062;-75
2023/02/18 01:39:16;;;;;;;33.17;12.45;;;;;;;8.71;96.17;102363.00;6099777;19;20494;-75
2023/02/18 01:41:23;;;;;;;38.55;16.48;;;;;;;8.65;96.35;102363.94;6102371;19;20420;-74
2023/02/18 01:43:28;;;;;;;39.80;15.48;;;;;;;8.63;96.52;102363.06;6102604;19;20421;-75
2023/02/18 01:45:59;;;;;;;42.33;15.27;;;;;;;8.62;96.67;102353.47;6102132;19;20526;-74
2023/02/18 01:48:07;;;;;;;36.53;15.18;;;;;;;8.65;96.79;102348.19;6102045;19;20025;-75
2023/02/18 01:50:12;;;;;;;33.25;13.45;;;;;;;8.67;96.47;102354.31;6102917;19;20012;-75
2023/02/18 01:52:22;;;;;;;39.22;15.70;;;;;;;8.63;96.93;102346.47;6098072;19;20021;-75
2023/02/18 01:54:31;;;;;;;36.78;13.52;;;;;;;8.61;96.99;102340.38;6101380;19;20007;-74
2023/02/18 01:56:53;;;;;;;35.40;14.38;;;;;;;8.62;97.07;102339.50;6104271;19;20007;-75
2023/02/18 01:59:01;;;;;;;38.17;13.50;;;;;;;8.61;97.13;102337.75;6106668;19;20018;-75
2023/02/18 02:01:07;;;;;;;39.45;14.68;;;;;;;8.61;97.17;102335.13;6104785;19;20054;-75
2023/02/18 02:03:12;;;;;;;37.92;15.40;;;;;;;8.61;96.97;102330.78;6102702;19;20010;-74
2023/02/18 02:05:18;;;;;;;40.42;14.68;;;;;;;8.60;97.19;102323.78;6102918;19;20311;-76
2023/02/18 02:07:26;;;;;;;35.95;14.63;;;;;;;8.64;96.94;102327.28;6103178;19;20551;-73
2023/02/18 02:09:33;;;;;;;41.38;15.90;;;;;;;8.60;97.25;102317.69;6099377;19;20399;-76
2023/02/18 02:12:02;;;;;;;39.05;14.05;;;;;;;8.60;97.34;102315.06;6101723;19;20010;-74
2023/02/18 02:14:24;;;;;;;38.08;15.43;;;;;;;8.60;97.23;102302.81;6099896;19;20019;-75
2023/02/18 02:16:37;;;;;;;40.33;14.85;;;;;;;8.59;97.05;102295.84;6104665;19;20020;-75
2023/02/18 02:18:55;;;;;;;41.85;15.45;;;;;;;8.64;96.97;102294.06;6108621;19;20021;-74
2023/02/18 02:21:32;;;;;;;41.75;15.52;;;;;;;8.66;97.29;102291.41;6104397;19;20021;-75
2023/02/18 02:24:07;;;;;;;40.17;16.48;;;;;;;8.67;96.88;102293.16;6108023;19;20006;-75
2023/02/18 02:26:46;;;;;;;43.88;16.75;;;;;;;8.67;97.40;102291.41;6103335;19;20019;-75
2023/02/18 02:29:33;;;;;;;51.28;18.77;;;;;;;8.69;96.99;102276.56;6105301;19;20078;-74
2023/02/18 02:32:08;;;;;;;47.78;17.63;;;;;;;8.69;97.19;102281.78;6105202;19;20011;-75
2023/02/18 02:34:49;;;;;;;45.42;17.13;;;;;;;8.69;97.19;102273.94;6097482;19;20070;-76
2023/02/18 02:37:02;;;;;;;46.28;18.67;;;;;;;8.70;97.30;102259.94;6104119;19;20338;-80
2023/02/18 02:39:15;;;;;;;47.38;17.80;;;;;;;8.69;97.11;102252.97;6105667;19;20036;-80
2023/02/18 02:41:35;;;;;;;45.75;18.10;;;;;;;8.68;97.04;102248.59;6106653;19;20011;-80
2023/02/18 02:43:51;;;;;;;45.42;17.58;;;;;;;8.69;97.53;102229.38;6106944;19;20273;-82
2023/02/18 02:46:01;;;;;;;44.08;17.30;;;;;;;8.66;97.12;102233.75;6104299;19;21188;-82
2023/02/18 02:48:15;;;;;;;42.25;17.08;;;;;;;8.65;97.17;102232.03;6106770;19;20464;-78
2023/02/18 02:50:32;;;;;;;39.53;12.88;;;;;;;8.64;97.13;102230.31;6102611;19;20035;-86
2023/02/18 02:54:38;;;;;;;36.17;11.32;;;;;;;8.63;97.17;102220.69;6050154;19;20827;-81
2023/02/18 02:56:44;;;;;;;31.05;11.18;;;;;;;8.63;97.30;102205.84;6098396;19;20019;-82
2023/02/18 02:58:57;;;;;;;28.48;9.40;;;;;;;8.65;97.29;102209.31;6101495;19;20033;-82
2023/02/18 03:01:19;;;;;;;22.45;9.02;;;;;;;8.68;97.47;102211.91;6100570;19;20019;-81
2023/02/18 03:03:50;;;;;;;26.17;9.70;;;;;;;8.68;97.56;102213.66;6100224;19;20013;-82
2023/02/18 03:06:17;;;;;;;21.85;8.77;;;;;;;8.67;97.38;102212.78;6097929;19;20325;-81
2023/02/18 03:08:39;;;;;;;29.80;10.15;;;;;;;8.69;97.14;102208.41;6097022;19;20449;-81
2023/02/18 03:10:56;;;;;;;21.80;10.15;;;;;;;8.68;97.48;102211.91;6099506;19;20010;-82
2023/02/18 03:13:09;;;;;;;23.67;10.48;;;;;;;8.73;97.74;102210.09;6104132;19;20024;-82
2023/02/18 03:15:23;;;;;;;23.90;9.93;;;;;;;8.70;97.51;102199.66;6100230;19;20655;-81
2023/02/18 03:17:32;;;;;;;22.33;10.43;;;;;;;8.76;97.74;102199.56;6101907;19;20035;-81
2023/02/18 03:19:41;;;;;;;25.98;10.98;;;;;;;8.77;97.79;102211.81;6106524;19;20019;-81
2023/02/18 03:21:56;;;;;;;27.15;11.32;;;;;;;8.80;97.68;102200.44;6102919;19;20019;-80
2023/02/18 03:24:07;;;;;;;23.92;9.73;;;;;;;8.82;97.66;102195.16;6106861;19;20002;-82
2023/02/18 03:26:14;;;;;;;25.27;9.63;;;;;;;8.82;97.56;102195.16;6100554;19;20016;-80
2023/02/18 03:28:22;;;;;;;26.23;10.98;;;;;;;8.85;97.70;102179.41;6077037;19;20765;-81
2023/02/18 03:30:32;;;;;;;24.85;10.00;;;;;;;8.85;97.59;102163.69;6098392;19;20470;-80
2023/02/18 03:32:37;;;;;;;25.77;10.50;;;;;;;8.84;97.63;102160.16;6097688;19;20477;-80
2023/02/18 03:34:47;;;;;;;22.85;9.70;;;;;;;8.83;97.44;102155.81;6095589;19;20022;-80
2023/02/18 03:36:55;;;;;;;23.67;9.95;;;;;;;8.80;97.53;102155.88;6097226;19;20015;-80
2023/02/18 03:39:04;;;;;;;25.55;9.95;;;;;;;8.81;97.35;102152.34;6100847;19;20719;-81
2023/02/18 03:41:09;;;;;;;19.45;7.93;;;;;;;8.80;97.30;102148.00;6099479;19;20011;-79
2023/02/18 03:43:15;;;;;;;18.92;8.23;;;;;;;8.80;97.08;102153.25;6099558;19;20014;-79
2023/02/18 03:45:20;;;;;;;21.63;8.27;;;;;;;8.79;97.38;102152.38;6101365;19;20086;-80
2023/02/18 03:47:25;;;;;;;20.27;9.32;;;;;;;8.78;97.46;102145.38;6079739;19;20019;-79
2023/02/18 03:49:30;;;;;;;21.60;9.82;;;;;;;8.80;96.97;102137.53;6098149;19;20002;-80
2023/02/18 03:51:35;;;;;;;21.50;9.80;;;;;;;8.81;97.16;102135.75;6104046;19;20018;-79
2023/02/18 03:53:42;;;;;;;20.30;8.70;;;;;;;8.82;97.21;102141.00;6098354;19;20457;-80
2023/02/18 03:55:47;;;;;;;21.02;9.30;;;;;;;8.82;96.96;102135.75;6102592;19;20538;-79
2023/02/18 03:57:52;;;;;;;20.30;10.02;;;;;;;8.82;97.06;102138.38;6097129;19;20684;-79
2023/02/18 03:59:57;;;;;;;19.48;8.40;;;;;;;8.82;97.12;102142.72;6096281;19;20003;-78
2023/02/18 04:02:01;;;;;;;19.65;9.60;;;;;;;8.84;96.91;102141.81;6098260;19;20070;-78
2023/02/18 04:04:11;;;;;;;18.35;8.10;;;;;;;8.85;97.03;102134.84;6096645;19;20693;-76
2023/02/18 04:06:16;;;;;;;21.30;8.18;;;;;;;8.88;96.99;102137.44;6095572;19;20011;-76
2023/02/18 04:08:21;;;;;;;20.75;8.32;;;;;;;8.87;97.04;102130.44;6099598;19;20041;-77
2023/02/18 04:10:28;;;;;;;18.38;7.88;;;;;;;8.88;97.15;102132.19;6094138;19;20014;-75
2023/02/18 04:12:34;;;;;;;18.95;8.25;;;;;;;8.92;96.71;102126.00;6096050;19;20113;-76
2023/02/18 04:14:39;;;;;;;25.73;8.85;;;;;;;8.93;96.76;102128.63;6096379;19;20545;-77
2023/02/18 04:16:46;;;;;;;22.70;7.97;;;;;;;8.96;96.84;102127.72;6097684;19;20011;-77
2023/02/18 04:18:51;;;;;;;25.90;9.50;;;;;;;8.95;97.01;102120.72;6098842;19;20541;-76
2023/02/18 04:20:56;;;;;;;26.05;10.13;;;;;;;8.98;97.16;102131.19;6100629;19;20582;-76
2023/02/18 04:23:01;;;;;;;27.17;9.50;;;;;;;8.99;96.93;102122.41;6103141;19;20533;-75
2023/02/18 04:25:10;;;;;;;27.80;10.52;;;;;;;9.01;96.62;102120.66;6104059;19;20015;-76
2023/02/18 04:27:17;;;;;;;26.50;11.75;;;;;;;9.03;96.83;102108.41;6103835;19;20018;-77
2023/02/18 04:29:22;;;;;;;27.38;10.77;;;;;;;9.02;96.82;102118.00;6105490;19;20089;-78
2023/02/18 04:31:27;;;;;;;27.50;10.40;;;;;;;9.01;96.62;102115.41;6106222;19;20525;-79
2023/02/18 04:33:33;;;;;;;31.58;11.45;;;;;;;9.01;96.99;102110.16;6107809;19;20018;-78
2023/02/18 04:35:40;;;;;;;26.92;10.80;;;;;;;9.05;96.86;102114.47;6084882;19;20066;-79
2023/02/18 04:37:45;;;;;;;28.92;11.07;;;;;;;9.03;96.69;102118.88;6103514;19;20050;-80
2023/02/18 04:39:53;;;;;;;25.48;10.98;;;;;;;9.06;96.57;102108.34;6105705;19;20011;-80
2023/02/18 04:41:59;;;;;;;36.65;12.18;;;;;;;9.06;96.92;102104.84;6102382;19;20731;-77
2023/02/18 04:44:06;;;;;;;31.00;11.90;;;;;;;9.07;96.71;102096.09;6102674;19;20082;-76
2023/02/18 04:46:11;;;;;;;27.60;10.75;;;;;;;9.08;96.80;102092.56;6094076;19;20723;-78
2023/02/18 04:48:16;;;;;;;27.45;10.57;;;;;;;9.10;96.47;102073.31;6098195;19;20559;-76
2023/02/18 04:50:21;;;;;;;32.35;10.52;;;;;;;9.10;96.75;102073.31;6097572;19;20513;-76
2023/02/18 04:52:26;;;;;;;29.77;11.25;;;;;;;9.11;96.46;102075.06;6098634;19;20111;-76
2023/02/18 04:54:31;;;;;;;27.60;11.23;;;;;;;9.12;96.62;102070.69;6100525;19;20110;-77
2023/02/18 04:56:36;;;;;;;26.77;11.23;;;;;;;9.12;96.26;102073.31;6100006;19;20018;-76
2023/02/18 04:58:41;;;;;;;27.35;9.93;;;;;;;9.10;96.57;102075.06;6099869;19;20520;-77
2023/02/18 05:00:48;;;;;;;26.88;10.55;;;;;;;9.11;96.43;102061.94;6095378;19;20047;-78
2023/02/18 05:02:53;;;;;;;24.85;10.90;;;;;;;9.13;96.02;102073.25;6094159;19;20662;-77
2023/02/18 05:04:58;;;;;;;28.73;10.32;;;;;;;9.13;96.47;102078.50;6095088;19;20339;-79
2023/02/18 05:07:03;;;;;;;28.08;10.85;;;;;;;9.15;96.01;102081.13;6096718;19;20006;-77
2023/02/18 05:09:08;;;;;;;25.35;10.55;;;;;;;9.20;95.83;102087.16;6097532;19;20034;-78
2023/02/18 05:11:12;;;;;;;25.58;9.70;;;;;;;9.15;96.16;102079.34;6098078;19;20018;-80
2023/02/18 05:13:21;;;;;;;21.83;8.95;;;;;;;9.17;95.79;102072.34;6097670;19;20883;-80
2023/02/18 05:15:26;;;;;;;21.17;9.57;;;;;;;9.20;96.03;102071.44;6095698;19;20025;-78
2023/02/18 05:17:36;;;;;;;24.77;9.52;;;;;;;9.17;95.80;102053.97;6089938;19;20025;-79
2023/02/18 05:19:41;;;;;;;22.35;9.57;;;;;;;9.17;96.13;102074.97;6098197;19;20010;-79
2023/02/18 05:21:46;;;;;;;24.08;9.25;;;;;;;9.18;95.84;102074.06;6095644;19;20015;-80
2023/02/18 05:23:51;;;;;;;26.23;11.00;;;;;;;9.21;95.78;102068.75;6091718;19;20007;-78
2023/02/18 05:25:56;;;;;;;22.08;8.52;;;;;;;9.16;95.91;102049.63;6100113;19;20314;-80
2023/02/18 05:28:01;;;;;;;21.13;10.70;;;;;;;9.18;95.84;102049.59;6099443;19;20022;-81
2023/02/18 05:30:08;;;;;;;30.98;10.85;;;;;;;9.14;95.79;102054.03;6094877;19;20038;-81
2023/02/18 05:32:13;;;;;;;27.73;10.45;;;;;;;9.15;95.86;102044.41;6080458;19;20459;-82
2023/02/18 05:34:20;;;;;;;23.52;9.77;;;;;;;9.16;95.65;102057.50;6096875;19;20018;-81
2023/02/18 05:36:25;;;;;;;24.23;10.60;;;;;;;9.13;95.49;102052.28;6099354;19;20383;-80
2023/02/18 05:38:30;;;;;;;26.05;10.68;;;;;;;9.08;95.81;102059.34;6080789;19;20022;-81
2023/02/18 05:40:35;;;;;;;30.83;10.60;;;;;;;9.10;96.05;102051.47;6097862;19;20022;-81
2023/02/18 05:42:40;;;;;;;27.55;10.73;;;;;;;9.07;95.76;102048.91;6098944;19;20013;-80
2023/02/18 05:44:42;;;;;;;27.38;10.05;;;;;;;9.04;96.02;102034.06;6096750;19;20499;-83
2023/02/18 05:46:49;;;;;;;32.42;12.98;;;;;;;9.01;95.87;102055.09;6076446;19;20023;-84
2023/02/18 05:48:55;;;;;;;34.67;13.45;;;;;;;8.97;96.31;102046.41;6075487;19;20113;-84
2023/02/18 05:51:06;;;;;;;31.15;13.27;;;;;;;8.96;96.24;102047.28;6098594;19;20042;-82
2023/02/18 05:53:13;;;;;;;35.63;12.35;;;;;;;8.94;96.13;102042.97;6070380;19;20298;-84
2023/02/18 05:55:23;;;;;;;28.60;10.80;;;;;;;8.94;96.42;102041.19;6096330;19;20854;-83
2023/02/18 05:57:28;;;;;;;31.88;12.45;;;;;;;8.93;96.39;102038.63;6076495;19;20097;-82
2023/02/18 05:59:36;;;;;;;35.75;12.27;;;;;;;8.95;96.40;102049.94;6050699;19;20570;-84
2023/02/18 06:01:41;;;;;;;29.98;11.48;;;;;;;8.94;96.03;102054.31;6072082;19;20018;-85
2023/02/18 06:03:47;;;;;;;34.55;13.15;;;;;;;8.91;96.24;102040.38;6099756;19;20015;-84
2023/02/18 06:05:52;;;;;;;38.90;12.60;;;;;;;8.93;96.14;102031.63;6058062;19;20014;-83
2023/02/18 06:08:00;;;;;;;29.75;10.52;;;;;;;8.95;96.09;102034.19;6095772;19;20014;-83
2023/02/18 06:10:07;;;;;;;29.55;11.10;;;;;;;8.92;96.08;102034.25;6090977;19;20011;-83
2023/02/18 06:12:12;;;;;;;30.88;13.52;;;;;;;8.92;95.88;102053.47;6052280;19;20094;-82
2023/02/18 06:14:18;;;;;;;35.67;11.18;;;;;;;8.91;96.18;102043.00;6075990;19;20085;-85
2023/02/18 06:16:24;;;;;;;32.95;10.88;;;;;;;8.96;96.04;102035.94;6103657;19;20175;-85
2023/02/18 06:18:32;;;;;;;33.38;10.68;;;;;;;8.93;95.31;102034.25;6091901;19;20018;-84
2023/02/18 06:20:37;;;;;;;29.65;9.10;;;;;;;8.99;95.37;102036.75;6105724;19;20070;-83
2023/02/18 06:22:42;;;;;;;30.27;9.45;;;;;;;9.01;95.38;102034.13;6101841;19;20011;-83
2023/02/18 06:24:59;;;;;;;26.38;10.07;;;;;;;9.00;95.26;102035.00;6102259;19;20006;-84
2023/02/18 06:27:08;;;;;;;35.83;9.05;;;;;;;8.98;95.34;102027.19;6086869;19;20640;-86
2023/02/18 06:29:13;;;;;;;26.02;9.40;;;;;;;9.02;95.15;102035.84;6113692;19;20038;-85
2023/02/18 06:31:20;;;;;;;32.50;10.57;;;;;;;9.01;95.36;102031.50;6107535;19;20009;-85
2023/02/18 06:33:27;;;;;;;32.78;10.05;;;;;;;9.01;95.19;102029.75;6107549;19;20032;-86
2023/02/18 06:35:34;;;;;;;26.55;10.48;;;;;;;9.04;95.19;102031.47;6097389;19;20018;-86
2023/02/18 06:37:39;;;;;;;23.25;8.57;;;;;;;9.02;95.07;102022.75;6103788;19;20066;-87
2023/02/18 06:39:45;;;;;;;34.05;8.90;;;;;;;9.00;94.74;102024.50;6098752;19;20018;-87
2023/02/18 06:41:57;;;;;;;25.70;8.25;;;;;;;9.05;94.95;102019.22;6100003;19;20433;-87
2023/02/18 06:44:05;;;;;;;28.57;8.63;;;;;;;9.07;94.47;102022.69;6098633;19;20043;-88
2023/02/18 06:46:10;;;;;;;19.27;7.40;;;;;;;9.08;94.42;102027.88;6095623;19;20252;-78
2023/02/18 06:48:15;;;;;;;20.80;6.78;;;;;;;9.08;94.08;102022.63;6091204;19;20939;-81
2023/02/18 06:50:20;;;;;;;22.27;6.82;;;;;;;9.13;93.51;102030.44;6092544;19;20015;-79
2023/02/18 06:52:25;;;;;;;26.92;6.57;;;;;;;9.11;93.78;102024.34;6089879;19;20523;-79
2023/02/18 06:54:30;;;;;;;27.63;6.72;;;;;;;9.06;93.53;102013.06;6092040;19;20002;-78
2023/02/18 06:56:36;;;;;;;20.17;5.88;;;;;;;9.07;93.69;102018.28;6090253;19;20678;-79
2023/02/18 06:58:44;;;;;;;18.85;6.20;;;;;;;9.07;92.94;102025.31;6083352;19;20011;-79
2023/02/18 07:00:49;;;;;;;21.77;5.38;;;;;;;9.06;92.74;102034.94;6098913;19;19998;-78
2023/02/18 07:02:54;;;;;;;24.38;6.55;;;;;;;9.06;93.04;102026.16;6080896;19;20770;-79
2023/02/18 07:05:01;;;;;;;11.38;4.53;;;;;;;9.02;92.42;102036.72;6094273;19;20081;-88
2023/02/18 07:07:15;;;;;;;19.58;5.18;;;;;;;9.00;92.41;102022.78;6116457;19;20062;-87
2023/02/18 07:09:29;;;;;;;27.25;4.82;;;;;;;8.96;91.89;102010.59;6093360;19;20010;-88
2023/02/18 07:14:26;;;;;;;16.77;4.68;;;;;;;8.96;91.07;102013.22;6086485;19;20010;-82
2023/02/18 07:25:36;;;;;;;9.20;3.15;;;;;;;9.00;89.73;102014.03;6118916;19;20021;-86
2023/02/18 07:30:41;;;;;;;15.27;4.40;;;;;;;8.97;89.77;102014.06;6027518;19;20718;-84
2023/02/18 07:33:00;;;;;;;16.93;4.03;;;;;;;8.96;89.56;102015.84;6031256;19;20015;-85
2023/02/18 07:35:21;;;;;;;17.90;5.05;;;;;;;8.94;89.53;102009.75;6112715;19;20275;-85
2023/02/18 07:37:35;;;;;;;10.63;2.92;;;;;;;8.97;89.26;102021.94;6120044;19;20018;-85
2023/02/18 07:39:43;;;;;;;17.10;3.67;;;;;;;8.99;88.95;102022.78;6093735;19;20018;-78
2023/02/18 07:41:49;;;;;;;12.70;3.83;;;;;;;8.95;89.08;102006.25;6103590;19;20900;-79
2023/02/18 07:43:54;;;;;;;13.10;3.40;;;;;;;9.02;88.26;102005.25;6101200;19;20482;-77
2023/02/18 07:46:01;;;;;;;21.33;3.70;;;;;;;9.06;88.13;102011.34;6077988;19;20029;-77
2023/02/18 07:48:21;;;;;;;24.63;4.28;;;;;;;9.06;87.93;102007.81;6099065;19;20791;-88
2023/02/18 07:50:26;;;;;;;13.93;3.75;;;;;;;9.05;88.32;102013.97;6082735;19;20026;-86
2023/02/18 07:52:33;;;;;;;13.55;3.85;;;;;;;9.06;87.92;102020.94;6105015;19;20031;-86
2023/02/18 07:54:40;;;;;;;22.58;3.55;;;;;;;9.04;88.13;102023.59;6107030;19;20030;-86
2023/02/18 07:56:52;;;;;;;14.43;3.83;;;;;;;9.04;87.61;102013.09;6094667;19;20051;-86
2023/02/18 07:58:59;;;;;;;14.18;3.58;;;;;;;9.04;87.93;102023.59;6084280;19;20019;-86
2023/02/18 08:01:13;;;;;;;17.98;4.18;;;;;;;9.01;87.89;102026.25;6083320;19;20097;-87
2023/02/18 08:03:25;;;;;;;19.23;4.47;;;;;;;8.99;88.22;102034.13;6045534;19;20018;-91
2023/02/18 08:05:39;;;;;;;15.43;3.75;;;;;;;8.98;88.08;102024.56;6052257;19;20027;-78
2023/02/18 08:07:44;;;;;;;20.27;4.22;;;;;;;9.03;87.54;102024.50;6070761;19;20018;-77
2023/02/18 08:09:50;;;;;;;14.80;4.72;;;;;;;9.02;87.71;102020.13;6073405;19;20118;-77
2023/02/18 08:11:56;;;;;;;15.93;3.92;;;;;;;9.05;87.80;102033.19;6094449;19;20042;-87
2023/02/18 08:14:07;;;;;;;18.48;4.22;;;;;;;9.07;87.80;102027.91;6109068;19;20022;-88
2023/02/18 08:16:15;;;;;;;12.32;3.75;;;;;;;9.03;88.47;102027.13;6096897;19;20569;-81
2023/02/18 08:18:22;;;;;;;16.83;3.85;;;;;;;9.01;88.70;102036.75;6096204;19;20042;-77
2023/02/18 08:20:30;;;;;;;16.67;3.88;;;;;;;8.99;89.02;102026.28;6096383;19;20041;-80
2023/02/18 08:22:35;;;;;;;19.70;3.55;;;;;;;8.97;89.23;102035.91;6078352;19;20093;-77
2023/02/18 08:24:39;;;;;;;14.77;4.13;;;;;;;8.98;89.26;102042.03;6098371;19;20101;-76
2023/02/18 08:26:44;;;;;;;20.90;4.43;;;;;;;8.93;89.59;102028.13;6075099;19;20062;-78
2023/02/18 08:29:03;;;;;;;16.95;4.32;;;;;;;8.95;89.98;102039.44;6095424;19;20015;-78
2023/02/18 08:31:09;;;;;;;15.35;4.38;;;;;;;8.95;89.70;102029.84;6098512;19;20029;-78
2023/02/18 08:33:17;;;;;;;18.75;4.05;;;;;;;8.98;89.30;102037.66;6097011;19;20010;-76
2023/02/18 08:35:22;;;;;;;23.27;4.93;;;;;;;8.98;89.31;102039.44;6097003;19;20265;-77
2023/02/18 08:37:28;;;;;;;19.55;3.90;;;;;;;9.05;88.66;102030.56;6095892;19;20556;-79
2023/02/18 08:39:53;;;;;;;17.85;4.70;;;;;;;9.07;88.37;102036.66;6099479;19;20010;-78
2023/02/18 08:41:59;;;;;;;13.45;3.85;;;;;;;9.06;88.33;102040.19;6099812;19;20058;-80
2023/02/18 08:44:03;;;;;;;19.90;3.88;;;;;;;9.09;87.50;102029.63;6102935;19;20088;-79
2023/02/18 08:46:08;;;;;;;14.35;3.85;;;;;;;9.15;86.93;102034.78;6092464;19;20010;-80
2023/02/18 08:48:22;;;;;;;10.60;3.45;;;;;;;9.15;86.79;102039.16;6101835;19;20030;-80
2023/02/18 08:50:29;;;;;;;16.00;4.13;;;;;;;9.16;86.65;102038.25;6078651;19;20085;-81
2023/02/18 08:52:34;;;;;;;14.13;4.57;;;;;;;9.18;86.12;102036.47;6099725;19;20018;-80
2023/02/18 08:54:39;;;;;;;15.00;3.67;;;;;;;9.19;86.52;102046.97;6102965;19;20112;-83
2023/02/18 08:56:45;;;;;;;12.60;3.95;;;;;;;9.23;86.26;102053.88;6104842;19;20010;-84
2023/02/18 08:58:52;;;;;;;17.65;3.63;;;;;;;9.27;86.29;102053.81;6106009;19;20006;-83
2023/02/18 09:01:03;;;;;;;22.98;3.78;;;;;;;9.29;86.63;102057.28;6108695;19;20784;-84
2023/02/18 09:03:08;;;;;;;29.98;5.15;;;;;;;9.31;86.43;102066.00;6111093;19;20040;-84
2023/02/18 09:05:19;;;;;;;17.52;3.83;;;;;;;9.28;86.03;102060.81;6110208;19;20010;-85
2023/02/18 09:07:24;;;;;;;15.93;3.60;;;;;;;9.28;86.32;102068.69;6080008;19;20015;-78
2023/02/18 09:09:29;;;;;;;21.70;3.38;;;;;;;9.29;86.26;102057.28;6099392;19;20706;-79
2023/02/18 09:11:33;;;;;;;19.67;4.15;;;;;;;9.28;86.10;102074.78;6078431;19;20018;-78
2023/02/18 09:13:38;;;;;;;22.20;3.78;;;;;;;9.31;86.08;102076.50;6102435;19;20014;-87
2023/02/18 09:15:43;;;;;;;17.25;4.15;;;;;;;9.35;86.40;102078.22;6105099;19;20027;-87
2023/02/18 09:17:51;;;;;;;14.10;3.15;;;;;;;9.33;86.06;102078.22;6083031;19;20101;-86
2023/02/18 09:19:56;;;;;;;21.63;4.30;;;;;;;9.33;86.28;102087.84;6064415;19;20007;-86
2023/02/18 09:22:08;;;;;;;11.82;3.80;;;;;;;9.35;85.68;102079.06;6115967;19;20017;-85
2023/02/18 09:24:13;;;;;;;17.88;3.95;;;;;;;9.40;85.51;102078.97;6099213;19;20016;-86
2023/02/18 09:26:21;;;;;;;13.55;3.47;;;;;;;9.39;85.64;102082.50;6114574;19;20047;-86
2023/02/18 09:28:27;;;;;;;16.58;3.63;;;;;;;9.40;85.57;102090.34;6111783;19;20131;-77
2023/02/18 09:30:32;;;;;;;17.25;3.20;;;;;;;9.35;85.97;102078.22;6097282;19;20002;-77
2023/02/18 09:32:39;;;;;;;16.75;3.38;;;;;;;9.31;85.98;102077.38;6078209;19;20014;-77
2023/02/18 09:34:44;;;;;;;18.52;4.40;;;;;;;9.34;85.97;102081.69;6096748;19;20002;-76
2023/02/18 09:36:48;;;;;;;17.63;3.83;;;;;;;9.36;86.47;102087.78;6099157;19;20761;-76
2023/02/18 09:38:58;;;;;;;15.07;3.55;;;;;;;9.33;86.47;102104.44;6105589;19;20079;-86
2023/02/18 09:41:09;;;;;;;12.90;3.75;;;;;;;9.39;86.19;102093.00;6084014;19;20011;-85
2023/02/18 09:43:24;;;;;;;25.27;5.18;;;;;;;9.46;86.19;102097.25;6102466;19;20010;-85
2023/02/18 09:45:32;;;;;;;15.77;3.83;;;;;;;9.48;86.41;102103.38;6102693;19;20542;-87
2023/02/18 09:47:39;;;;;;;19.35;4.60;;;;;;;9.47;85.87;102106.00;6077334;19;20094;-78
2023/02/18 09:49:49;;;;;;;15.88;4.30;;;;;;;9.43;86.12;102110.44;6099592;19;20007;-77
2023/02/18 09:51:54;;;;;;;19.33;4.32;;;;;;;9.41;86.39;102097.31;6079938;19;20011;-76
2023/02/18 09:54:02;;;;;;;18.38;4.43;;;;;;;9.38;86.24;102091.28;6096575;19;20007;-76
2023/02/18 09:56:13;;;;;;;17.05;4.10;;;;;;;9.39;86.43;102095.63;6054313;19;20816;-78
2023/02/18 09:58:22;;;;;;;23.85;3.92;;;;;;;9.37;86.49;102094.75;6096318;19;20051;-77
2023/02/18 10:00:32;;;;;;;16.83;4.00;;;;;;;9.38;86.85;102091.28;6099258;19;21580;-76
2023/02/18 10:02:41;;;;;;;21.00;4.35;;;;;;;9.43;86.51;102092.06;6081075;19;20079;-88
2023/02/18 10:04:54;;;;;;;24.23;4.15;;;;;;;9.48;86.54;102087.63;6107179;19;20007;-88
2023/02/18 10:07:02;;;;;;;20.67;4.25;;;;;;;9.52;86.65;102118.16;6105834;19;20034;-85
2023/02/18 10:09:20;;;;;;;16.45;4.07;;;;;;;9.48;86.00;102105.09;6103708;19;20023;-87
2023/02/18 10:11:31;;;;;;;16.60;3.78;;;;;;;9.52;86.53;102117.28;6107486;19;20071;-86